createdAt,value
2024-01-24T00:02:02.346Z,101410.23
2024-01-24T00:04:30.588Z,101414.59
2024-01-24T00:06:58.793Z,101411.01
2024-01-24T00:09:26.974Z,101402.11
2024-01-24T00:11:55.115Z,101392.31
2024-01-24T00:14:23.342Z,101386.23
2024-01-24T00:16:51.495Z,101376.84
2024-01-24T00:19:19.533Z,101359.16
2024-01-24T00:21:47.865Z,101355.23
2024-01-24T00:24:16.396Z,101344.76
2024-01-24T00:26:44.447Z,101326.63
2024-01-24T00:29:12.520Z,101316.23
2024-01-24T00:31:40.737Z,101311.30
2024-01-24T00:34:09.454Z,101305.54
2024-01-24T00:36:37.617Z,101298.62
2024-01-24T00:39:05.628Z,101281.69
2024-01-24T00:41:33.956Z,101275.83
2024-01-24T00:44:02.098Z,101274.60
2024-01-24T00:46:30.121Z,101269.77
2024-01-24T00:48:58.344Z,101267.27
2024-01-24T00:51:26.404Z,101254.63
2024-01-24T00:53:54.489Z,101244.02
2024-01-24T00:56:23.047Z,101233.35
2024-01-24T00:58:51.133Z,101218.44
2024-01-24T01:01:20.946Z,101218.11
2024-01-24T01:03:49.179Z,101224.70
2024-01-24T01:06:17.440Z,101231.16
2024-01-24T01:08:45.544Z,101229.34
2024-01-24T01:11:13.668Z,101220.77
2024-01-24T01:13:41.787Z,101217.04
2024-01-24T01:16:09.932Z,101205.81
2024-01-24T01:18:39.054Z,101198.79
2024-01-24T01:21:07.322Z,101191.25
2024-01-24T01:23:35.603Z,101187.65
2024-01-24T01:26:04.176Z,101175.95
2024-01-24T01:28:32.244Z,101154.61
2024-01-24T01:31:00.277Z,101157.12
2024-01-24T01:33:28.402Z,101156.42
2024-01-24T01:36:08.513Z,101157.79
2024-01-24T01:38:42.420Z,101154.49
2024-01-24T01:41:10.490Z,101138.54
2024-01-24T01:43:38.778Z,101114.71
2024-01-24T01:46:12.881Z,101091.80
2024-01-24T01:48:41.213Z,101075.94
2024-01-24T01:51:09.428Z,101073.33
2024-01-24T01:53:40.304Z,101076.83
2024-01-24T01:56:13.074Z,101069.33
2024-01-24T01:58:42.326Z,101056.83
2024-01-24T02:01:10.785Z,101039.76
2024-01-24T02:03:44.411Z,101032.16
2024-01-24T02:06:13.176Z,101024.34
2024-01-24T02:08:41.654Z,101005.42
2024-01-24T02:11:11.104Z,100996.47
2024-01-24T02:13:39.146Z,100982.85
2024-01-24T02:16:08.394Z,100966.29
2024-01-24T02:18:37.097Z,100946.91
2024-01-24T02:21:05.543Z,100942.13
2024-01-24T02:23:33.826Z,100929.20
2024-01-24T02:26:01.918Z,100916.50
2024-01-24T02:28:31.054Z,100918.76
2024-01-24T02:30:59.173Z,100906.75
2024-01-24T02:33:27.312Z,100896.98
2024-01-24T02:35:55.446Z,100890.89
2024-01-24T02:38:24.965Z,100890.19
2024-01-24T02:40:53.128Z,100878.80
2024-01-24T02:43:21.188Z,100868.16
2024-01-24T02:45:49.427Z,100856.65
2024-01-24T02:48:18.976Z,100846.83
2024-01-24T02:50:47.370Z,100835.05
2024-01-24T02:53:15.425Z,100826.75
2024-01-24T02:55:43.669Z,100818.27
2024-01-24T02:58:11.913Z,100813.88
2024-01-24T03:00:40.002Z,100807.61
2024-01-24T03:03:08.229Z,100793.22
2024-01-24T03:05:36.594Z,100788.87
2024-01-24T03:08:05.049Z,100776.27
2024-01-24T03:10:33.144Z,100771.73
2024-01-24T03:13:01.211Z,100767.10
2024-01-24T03:15:29.507Z,100762.05
2024-01-24T03:17:58.016Z,100758.30
2024-01-24T03:20:26.044Z,100753.42
2024-01-24T03:22:54.109Z,100746.13
2024-01-24T03:25:22.368Z,100739.93
2024-01-24T03:27:50.579Z,100735.71
2024-01-24T03:30:18.775Z,100731.83
2024-01-24T03:32:46.918Z,100727.80
2024-01-24T03:35:15.202Z,100716.00
2024-01-24T03:37:43.402Z,100710.63
2024-01-24T03:40:11.799Z,100708.11
2024-01-24T03:42:40.065Z,100697.02
2024-01-24T03:45:08.664Z,100697.00
2024-01-24T03:47:36.797Z,100688.46
2024-01-24T03:50:05.243Z,100679.38
2024-01-24T03:52:33.265Z,100675.67
2024-01-24T03:55:02.318Z,100666.36
2024-01-24T03:57:30.528Z,100658.39
2024-01-24T03:59:58.899Z,100647.67
2024-01-24T04:02:27.230Z,100634.56
2024-01-24T04:04:55.474Z,100615.70
2024-01-24T04:07:23.650Z,100600.52
2024-01-24T04:09:51.799Z,100588.82
2024-01-24T04:12:19.916Z,100576.65
2024-01-24T04:14:48.063Z,100578.80
2024-01-24T04:17:16.852Z,100574.31
2024-01-24T04:19:45.579Z,100562.28
2024-01-24T04:22:14.388Z,100553.88
2024-01-24T04:24:42.910Z,100552.02
2024-01-24T04:27:12.077Z,100550.61
2024-01-24T04:29:44.282Z,100545.55
2024-01-24T04:32:12.494Z,100538.76
2024-01-24T04:34:41.792Z,100531.76
2024-01-24T04:37:12.741Z,100519.33
2024-01-24T04:40:11.755Z,100499.64
2024-01-24T04:43:06.909Z,100472.22
2024-01-24T04:45:36.438Z,100464.89
2024-01-24T04:48:09.026Z,100463.13
2024-01-24T04:50:37.322Z,100457.34
2024-01-24T04:53:06.745Z,100446.77
2024-01-24T04:55:34.916Z,100441.70
2024-01-24T04:58:07.553Z,100433.80
2024-01-24T05:00:38.701Z,100426.76
2024-01-24T05:03:07.437Z,100414.91
2024-01-24T05:05:38.715Z,100421.04
2024-01-24T05:08:07.597Z,100405.90
2024-01-24T05:10:35.750Z,100405.48
2024-01-24T05:13:05.309Z,100392.90
2024-01-24T05:15:33.467Z,100394.91
2024-01-24T05:18:01.794Z,100373.54
2024-01-24T05:20:30.440Z,100380.45
2024-01-24T05:22:58.742Z,100359.27
2024-01-24T05:25:26.842Z,100368.40
2024-01-24T05:27:54.945Z,100365.80
2024-01-24T05:30:34.677Z,100361.97
2024-01-24T05:33:05.179Z,100354.13
2024-01-24T05:35:34.551Z,100340.03
2024-01-24T05:38:02.821Z,100316.27
2024-01-24T05:40:31.881Z,100300.02
2024-01-24T05:43:01.466Z,100285.75
2024-01-24T05:45:29.574Z,100285.36
2024-01-24T05:47:58.339Z,100268.02
2024-01-24T05:50:26.662Z,100259.06
2024-01-24T05:52:54.802Z,100242.59
2024-01-24T05:55:22.886Z,100240.30
2024-01-24T05:57:51.855Z,100225.64
2024-01-24T06:00:20.843Z,100218.73
2024-01-24T06:02:49.072Z,100212.63
2024-01-24T06:05:19.927Z,100204.41
2024-01-24T06:07:50.924Z,100200.33
2024-01-24T06:10:19.352Z,100197.97
2024-01-24T06:12:47.954Z,100189.98
2024-01-24T06:15:16.321Z,100179.41
2024-01-24T06:17:44.607Z,100177.68
2024-01-24T06:20:13.432Z,100179.31
2024-01-24T06:22:41.914Z,100159.52
2024-01-24T06:25:11.295Z,100161.90
2024-01-24T06:27:40.539Z,100165.19
2024-01-24T06:30:19.390Z,100146.98
2024-01-24T06:32:53.250Z,100141.63
2024-01-24T06:35:22.854Z,100130.80
2024-01-24T06:37:53.308Z,100126.36
2024-01-24T06:40:21.592Z,100123.36
2024-01-24T06:42:52.240Z,100129.48
2024-01-24T06:45:21.547Z,100120.17
2024-01-24T06:47:50.473Z,100115.59
2024-01-24T06:50:20.064Z,100105.44
2024-01-24T06:52:48.628Z,100104.69
2024-01-24T06:55:18.998Z,100092.21
2024-01-24T06:57:47.890Z,100087.40
2024-01-24T07:00:16.866Z,100088.36
2024-01-24T07:02:45.435Z,100068.52
2024-01-24T07:05:14.286Z,100066.21
2024-01-24T07:07:44.107Z,100066.14
2024-01-24T07:10:13.051Z,100058.14
2024-01-24T07:12:47.682Z,100052.31
2024-01-24T07:15:17.616Z,100045.61
2024-01-24T07:17:47.047Z,100037.65
2024-01-24T07:20:17.242Z,100047.98
2024-01-24T07:22:45.782Z,100047.66
2024-01-24T07:25:14.079Z,100040.45
2024-01-24T07:27:43.576Z,100033.92
2024-01-24T07:30:12.480Z,100050.59
2024-01-24T07:32:42.439Z,100053.46
2024-01-24T07:35:11.342Z,100035.16
2024-01-24T07:37:39.875Z,100038.69
2024-01-24T07:40:19.629Z,100039.14
2024-01-24T07:42:49.027Z,100035.23
2024-01-24T07:45:20.372Z,100028.17
2024-01-24T07:47:56.353Z,100027.02
2024-01-24T07:50:24.814Z,100026.52
2024-01-24T07:52:53.518Z,100029.91
2024-01-24T07:55:28.622Z,100022.35
2024-01-24T07:58:05.372Z,100013.36
2024-01-24T08:00:34.047Z,100013.36
2024-01-24T08:03:03.083Z,100001.05
2024-01-24T08:05:33.813Z,99993.11
2024-01-24T08:08:04.073Z,99980.73
2024-01-24T08:10:32.619Z,99966.05
2024-01-24T08:13:00.920Z,99971.77
2024-01-24T08:15:29.369Z,99955.52
2024-01-24T08:17:57.763Z,99949.04
2024-01-24T08:20:27.093Z,99947.51
2024-01-24T08:22:55.200Z,99948.91
2024-01-24T08:25:24.135Z,99953.48
2024-01-24T08:27:52.587Z,99956.36
2024-01-24T08:30:21.211Z,99960.63
2024-01-24T08:32:50.450Z,99945.95
2024-01-24T08:35:19.133Z,99940.55
2024-01-24T08:37:47.423Z,99946.41
2024-01-24T08:40:18.551Z,99946.48
2024-01-24T08:42:47.062Z,99948.43
2024-01-24T08:45:15.428Z,99936.35
2024-01-24T08:47:45.062Z,99927.48
2024-01-24T08:50:13.818Z,99930.61
2024-01-24T08:52:42.593Z,99929.27
2024-01-24T08:55:15.110Z,99919.29
2024-01-24T08:57:45.232Z,99901.58
2024-01-24T09:00:14.236Z,99893.80
2024-01-24T09:02:42.586Z,99898.01
2024-01-24T09:05:11.021Z,99900.23
2024-01-24T09:07:39.879Z,99901.85
2024-01-24T09:10:10.136Z,99899.00
2024-01-24T09:12:38.883Z,99893.73
2024-01-24T09:15:08.080Z,99893.67
2024-01-24T09:17:37.112Z,99897.92
2024-01-24T09:20:07.823Z,99889.71
2024-01-24T09:22:36.457Z,99895.55
2024-01-24T09:25:08.118Z,99892.25
2024-01-24T09:27:38.012Z,99886.81
2024-01-24T09:30:07.601Z,99895.77
2024-01-24T09:32:36.073Z,99889.88
2024-01-24T09:35:05.384Z,99885.38
2024-01-24T09:37:37.546Z,99877.80
2024-01-24T09:40:08.288Z,99877.52
2024-01-24T09:42:44.586Z,99894.11
2024-01-24T09:45:18.044Z,99886.63
2024-01-24T09:47:52.482Z,99881.20
2024-01-24T09:50:22.646Z,99880.88
2024-01-24T09:52:57.369Z,99885.24
2024-01-24T09:55:27.380Z,99880.52
2024-01-24T09:57:57.446Z,99882.67
2024-01-24T10:00:26.075Z,99874.40
2024-01-24T10:02:55.827Z,99870.11
2024-01-24T10:05:27.142Z,99877.00
2024-01-24T10:07:56.286Z,99882.50
2024-01-24T10:10:25.128Z,99887.29
2024-01-24T10:12:53.422Z,99894.36
2024-01-24T10:15:22.760Z,99885.90
2024-01-24T10:17:51.209Z,99883.95
2024-01-24T10:20:20.448Z,99868.78
2024-01-24T10:22:49.199Z,99872.43
2024-01-24T10:25:18.163Z,99861.90
2024-01-24T10:27:46.530Z,99855.73
2024-01-24T10:30:17.178Z,99860.65
2024-01-24T10:32:48.744Z,99863.31
2024-01-24T10:35:18.039Z,99863.54
2024-01-24T10:37:47.472Z,99855.72
2024-01-24T10:40:17.634Z,99847.38
2024-01-24T10:42:53.141Z,99852.95
2024-01-24T10:45:21.868Z,99856.80
2024-01-24T10:47:51.244Z,99854.73
2024-01-24T10:50:21.319Z,99855.36
2024-01-24T10:52:53.077Z,99860.80
2024-01-24T10:55:23.595Z,99858.21
2024-01-24T10:57:53.429Z,99862.07
2024-01-24T11:00:24.245Z,99862.66
2024-01-24T11:02:56.219Z,99863.42
2024-01-24T11:05:58.551Z,99859.77
2024-01-24T11:08:40.541Z,99855.90
2024-01-24T11:11:18.931Z,99852.71
2024-01-24T11:13:47.615Z,99843.61
2024-01-24T11:16:29.813Z,99847.39
2024-01-24T11:19:23.701Z,99845.21
2024-01-24T11:21:54.096Z,99848.44
2024-01-24T11:24:41.694Z,99845.55
2024-01-24T11:27:36.917Z,99845.23
2024-01-24T11:30:20.708Z,99837.17
2024-01-24T11:32:49.718Z,99839.61
2024-01-24T11:35:29.750Z,99840.66
2024-01-24T11:38:28.520Z,99840.56
2024-01-24T11:41:01.486Z,99837.77
2024-01-24T11:43:36.949Z,99838.74
2024-01-24T11:46:09.855Z,99843.02
2024-01-24T11:48:41.182Z,99843.40
2024-01-24T11:51:12.454Z,99850.71
2024-01-24T11:53:40.827Z,99835.80
2024-01-24T11:56:12.960Z,99845.51
2024-01-24T11:58:41.800Z,99841.31
2024-01-24T12:01:12.271Z,99835.00
2024-01-24T12:03:49.467Z,99842.45
2024-01-24T12:06:20.476Z,99843.16
2024-01-24T12:08:50.851Z,99841.95
2024-01-24T12:11:20.254Z,99839.64
2024-01-24T12:13:49.060Z,99857.67
2024-01-24T12:16:17.523Z,99857.84
2024-01-24T12:18:46.864Z,99856.00
2024-01-24T12:21:17.960Z,99855.23
2024-01-24T12:23:49.302Z,99855.10
2024-01-24T12:26:17.884Z,99852.99
2024-01-24T12:28:48.777Z,99854.48
2024-01-24T12:31:18.062Z,99855.78
2024-01-24T12:33:48.240Z,99860.39
2024-01-24T12:36:17.049Z,99861.36
2024-01-24T12:38:45.229Z,99853.59
2024-01-24T12:41:13.976Z,99859.80
2024-01-24T12:43:42.289Z,99854.61
2024-01-24T12:46:13.649Z,99864.60
2024-01-24T12:48:43.241Z,99861.41
2024-01-24T12:51:11.580Z,99856.52
2024-01-24T12:53:39.892Z,99851.70
2024-01-24T12:56:08.345Z,99860.66
2024-01-24T12:58:36.515Z,99865.61
2024-01-24T13:01:05.636Z,99873.01
2024-01-24T13:03:34.471Z,99860.60
2024-01-24T13:06:04.268Z,99859.30
2024-01-24T13:08:32.828Z,99854.71
2024-01-24T13:11:01.196Z,99850.61
2024-01-24T13:13:29.735Z,99851.54
2024-01-24T13:15:59.658Z,99854.07
2024-01-24T13:18:27.972Z,99845.73
2024-01-24T13:20:56.477Z,99859.99
2024-01-24T13:23:24.507Z,99854.74
2024-01-24T13:25:52.746Z,99850.45
2024-01-24T13:28:23.115Z,99858.45
2024-01-24T13:30:52.675Z,99861.58
2024-01-24T13:33:21.151Z,99863.35
2024-01-24T13:35:49.699Z,99866.35
2024-01-24T13:38:18.056Z,99864.50
2024-01-24T13:40:46.336Z,99869.58
2024-01-24T13:43:14.517Z,99866.16
2024-01-24T13:45:43.518Z,99862.35
2024-01-24T13:48:12.187Z,99857.67
2024-01-24T13:50:40.384Z,99866.29
2024-01-24T13:53:08.486Z,99857.58
2024-01-24T13:55:36.755Z,99869.02
2024-01-24T13:58:05.564Z,99881.02
2024-01-24T14:00:34.086Z,99884.98
2024-01-24T14:03:02.384Z,99885.24
2024-01-24T14:05:31.274Z,99877.96
2024-01-24T14:07:59.673Z,99877.77
2024-01-24T14:10:28.270Z,99891.51
2024-01-24T14:12:57.248Z,99886.79
2024-01-24T14:15:33.476Z,99896.14
2024-01-24T14:18:05.084Z,99889.34
2024-01-24T14:20:34.786Z,99900.92
2024-01-24T14:23:03.251Z,99900.17
2024-01-24T14:25:31.393Z,99893.38
2024-01-24T14:27:59.564Z,99894.27
2024-01-24T14:30:27.713Z,99895.23
2024-01-24T14:32:55.961Z,99896.94
2024-01-24T14:35:24.663Z,99896.66
2024-01-24T14:37:53.038Z,99891.75
2024-01-24T14:40:22.350Z,99904.80
2024-01-24T14:42:50.844Z,99905.12
2024-01-24T14:45:19.582Z,99905.92
2024-01-24T14:47:48.650Z,99901.47
2024-01-24T14:50:18.165Z,99903.42
2024-01-24T14:52:46.785Z,99906.95
2024-01-24T14:55:15.228Z,99911.71
2024-01-24T14:57:43.892Z,99907.92
2024-01-24T15:00:14.011Z,99917.45
2024-01-24T15:02:42.150Z,99922.84
2024-01-24T15:05:10.672Z,99918.20
2024-01-24T15:07:39.467Z,99932.98
2024-01-24T15:10:09.360Z,99927.19
2024-01-24T15:12:38.165Z,99938.73
2024-01-24T15:15:07.579Z,99943.66
2024-01-24T15:17:37.148Z,99937.60
2024-01-24T15:20:06.979Z,99937.59
2024-01-24T15:22:37.366Z,99948.35
2024-01-24T15:25:07.876Z,99953.73
2024-01-24T15:27:36.510Z,99961.71
2024-01-24T15:30:06.308Z,99973.61
2024-01-24T15:32:35.596Z,99972.11
2024-01-24T15:35:04.496Z,99962.34
2024-01-24T15:37:33.192Z,99968.06
2024-01-24T15:40:07.165Z,99963.29
2024-01-24T15:42:43.407Z,99965.48
2024-01-24T15:45:14.086Z,99960.59
2024-01-24T15:47:42.786Z,99962.92
2024-01-24T15:50:12.186Z,99959.84
2024-01-24T15:52:40.444Z,99960.83
2024-01-24T15:55:08.827Z,99957.61
2024-01-24T15:57:37.590Z,99956.70
2024-01-24T16:00:11.019Z,99954.73
2024-01-24T16:02:41.385Z,99950.52
2024-01-24T16:05:34.941Z,99955.67
2024-01-24T16:08:04.342Z,99962.05
2024-01-24T16:10:32.680Z,99964.45
2024-01-24T16:13:01.310Z,99971.30
2024-01-24T16:15:29.927Z,99971.59
2024-01-24T16:17:58.228Z,99965.86
2024-01-24T16:20:26.643Z,99965.07
2024-01-24T16:22:56.973Z,99965.20
2024-01-24T16:25:26.583Z,99962.95
2024-01-24T16:27:55.888Z,99979.73
2024-01-24T16:30:29.257Z,99983.55
2024-01-24T16:33:00.323Z,99979.85
2024-01-24T16:35:28.667Z,99988.17
2024-01-24T16:37:56.964Z,99986.73
2024-01-24T16:40:25.479Z,99985.17
2024-01-24T16:42:53.641Z,100000.48
2024-01-24T16:45:21.928Z,99997.22
2024-01-24T16:47:51.887Z,99997.04
2024-01-24T16:50:20.811Z,99992.62
2024-01-24T16:52:49.761Z,99993.15
2024-01-24T16:55:19.710Z,99989.50
2024-01-24T16:57:48.681Z,99986.45
2024-01-24T17:00:17.279Z,99988.03
2024-01-24T17:02:50.379Z,99984.52
2024-01-24T17:05:22.903Z,99990.02
2024-01-24T17:07:51.034Z,99985.13
2024-01-24T17:10:19.210Z,99985.94
2024-01-24T17:12:48.199Z,99976.70
2024-01-24T17:15:16.689Z,99978.70
2024-01-24T17:17:46.388Z,99982.29
2024-01-24T17:20:14.630Z,99988.27
2024-01-24T17:22:46.474Z,99992.99
2024-01-24T17:25:16.455Z,99988.51
2024-01-24T17:27:44.615Z,99985.51
2024-01-24T17:30:14.667Z,99986.61
2024-01-24T17:32:43.118Z,99987.30
2024-01-24T17:35:11.485Z,99986.17
2024-01-24T17:37:40.000Z,99981.69
2024-01-24T17:40:10.440Z,99977.33
2024-01-24T17:42:40.151Z,99978.75
2024-01-24T17:45:09.328Z,99988.11
2024-01-24T17:47:39.094Z,99981.60
2024-01-24T17:50:08.175Z,99980.86
2024-01-24T17:52:39.345Z,99986.48
2024-01-24T17:55:08.366Z,99988.34
2024-01-24T17:57:37.221Z,99987.44
2024-01-24T18:00:07.787Z,99990.08
2024-01-24T18:02:36.562Z,99982.73
2024-01-24T18:05:06.845Z,99988.46
2024-01-24T18:07:36.050Z,100000.55
2024-01-24T18:10:05.392Z,99998.73
2024-01-24T18:12:33.937Z,99987.77
2024-01-24T18:15:02.318Z,99981.27
2024-01-24T18:17:33.025Z,99981.35
2024-01-24T18:20:04.245Z,99985.70
2024-01-24T18:22:32.470Z,99986.73
2024-01-24T18:25:00.615Z,99989.77
2024-01-24T18:27:28.989Z,99981.94
2024-01-24T18:29:57.242Z,99982.09
2024-01-24T18:32:25.580Z,99977.55
2024-01-24T18:34:54.170Z,99981.30
2024-01-24T18:37:22.607Z,99981.04
2024-01-24T18:39:50.690Z,99988.14
2024-01-24T18:42:20.859Z,99987.84
2024-01-24T18:44:49.022Z,99993.29
2024-01-24T18:47:17.183Z,99995.39
2024-01-24T18:49:46.146Z,100000.59
2024-01-24T18:52:14.717Z,99996.23
2024-01-24T18:54:45.561Z,99996.92
2024-01-24T18:57:13.977Z,99998.66
2024-01-24T18:59:42.501Z,100005.30
2024-01-24T19:02:12.842Z,100004.63
2024-01-24T19:04:42.189Z,100005.95
2024-01-24T19:07:10.582Z,100000.12
2024-01-24T19:09:42.891Z,100006.48
2024-01-24T19:12:11.782Z,100000.36
2024-01-24T19:14:43.258Z,100003.81
2024-01-24T19:17:12.360Z,100002.76
2024-01-24T19:19:40.543Z,99994.59
2024-01-24T19:22:08.850Z,99994.20
2024-01-24T19:24:37.073Z,99989.06
2024-01-24T19:27:07.870Z,99991.23
2024-01-24T19:29:37.275Z,99993.09
2024-01-24T19:32:09.199Z,100002.24
2024-01-24T19:34:37.505Z,100000.02
2024-01-24T19:37:05.769Z,100003.96
2024-01-24T19:39:34.172Z,99997.15
2024-01-24T19:42:02.802Z,99995.45
2024-01-24T19:44:31.638Z,99996.05
2024-01-24T19:47:04.412Z,99995.27
2024-01-24T19:49:34.234Z,99997.61
2024-01-24T19:52:02.787Z,99998.81
2024-01-24T19:54:31.543Z,99994.34
2024-01-24T19:56:59.822Z,100001.14
2024-01-24T19:59:30.216Z,100003.04
2024-01-24T20:02:16.887Z,99997.02
2024-01-24T20:04:45.905Z,99992.16
2024-01-24T20:07:18.716Z,99995.67
2024-01-24T20:09:47.222Z,99992.55
2024-01-24T20:12:15.459Z,99999.79
2024-01-24T20:14:43.734Z,99999.77
2024-01-24T20:17:11.866Z,100002.21
2024-01-24T20:19:40.124Z,100001.74
2024-01-24T20:22:08.484Z,100000.16
2024-01-24T20:24:36.992Z,99998.39
2024-01-24T20:27:05.434Z,99998.06
2024-01-24T20:29:33.558Z,100004.45
2024-01-24T20:32:04.954Z,100002.79
2024-01-24T20:34:33.760Z,100010.61
2024-01-24T20:37:03.617Z,100012.39
2024-01-24T20:39:34.923Z,100016.52
2024-01-24T20:42:05.762Z,100019.13
2024-01-24T20:44:39.279Z,100021.94
2024-01-24T20:47:08.588Z,100027.00
2024-01-24T20:49:36.987Z,100028.39
2024-01-24T20:52:05.877Z,100027.25
2024-01-24T20:54:36.345Z,100036.20
2024-01-24T20:57:05.947Z,100034.77
2024-01-24T20:59:39.542Z,100035.86
2024-01-24T21:02:08.171Z,100044.26
2024-01-24T21:04:37.598Z,100030.81
2024-01-24T21:07:07.635Z,100034.72
2024-01-24T21:09:36.321Z,100029.54
2024-01-24T21:12:08.356Z,100031.09
2024-01-24T21:14:36.777Z,100026.33
2024-01-24T21:17:04.967Z,100026.92
2024-01-24T21:19:33.408Z,100032.89
2024-01-24T21:22:02.035Z,100034.34
2024-01-24T21:24:30.586Z,100038.48
2024-01-24T21:27:09.598Z,100053.57
2024-01-24T21:29:38.140Z,100056.96
2024-01-24T21:32:07.130Z,100059.48
2024-01-24T21:34:36.568Z,100066.77
2024-01-24T21:37:04.798Z,100068.02
2024-01-24T21:39:33.129Z,100071.17
2024-01-24T21:42:01.937Z,100061.81
2024-01-24T21:44:30.235Z,100066.82
2024-01-24T21:46:58.377Z,100073.56
2024-01-24T21:49:26.677Z,100075.87
2024-01-24T21:51:55.068Z,100067.80
2024-01-24T21:54:23.210Z,100079.45
2024-01-24T21:56:51.740Z,100083.56
2024-01-24T21:59:19.912Z,100077.42
2024-01-24T22:01:48.232Z,100080.52
2024-01-24T22:04:16.386Z,100083.34
2024-01-24T22:06:44.649Z,100082.97
2024-01-24T22:09:15.201Z,100087.61
2024-01-24T22:11:43.354Z,100084.11
2024-01-24T22:14:12.290Z,100082.84
2024-01-24T22:16:40.327Z,100079.65
2024-01-24T22:19:08.458Z,100092.42
2024-01-24T22:21:42.217Z,100085.30
2024-01-24T22:24:10.783Z,100086.39
2024-01-24T22:26:39.260Z,100094.12
2024-01-24T22:29:10.258Z,100097.84
2024-01-24T22:31:38.520Z,100113.36
2024-01-24T22:34:06.752Z,100115.71
2024-01-24T22:36:35.072Z,100115.03
2024-01-24T22:39:03.499Z,100115.48
2024-01-24T22:41:31.851Z,100120.16
2024-01-24T22:44:00.055Z,100123.77
2024-01-24T22:46:32.400Z,100125.09
2024-01-24T22:49:03.750Z,100136.43
2024-01-24T22:51:36.638Z,100131.11
2024-01-24T22:54:05.800Z,100139.35
2024-01-24T22:56:34.112Z,100138.08
2024-01-24T22:59:02.208Z,100131.56
2024-01-24T23:01:30.719Z,100138.45
2024-01-24T23:03:59.027Z,100130.63
2024-01-24T23:06:27.224Z,100130.27
2024-01-24T23:08:55.340Z,100125.02
2024-01-24T23:11:24.020Z,100130.99
2024-01-24T23:13:52.226Z,100129.11
2024-01-24T23:16:20.399Z,100132.80
2024-01-24T23:18:48.767Z,100134.31
2024-01-24T23:21:17.346Z,100131.17
2024-01-24T23:23:45.389Z,100123.92
2024-01-24T23:26:13.485Z,100136.85
2024-01-24T23:28:41.571Z,100138.95
2024-01-24T23:31:09.758Z,100136.48
2024-01-24T23:33:38.125Z,100129.53
2024-01-24T23:36:08.369Z,100136.20
2024-01-24T23:38:36.706Z,100125.48
2024-01-24T23:41:04.990Z,100132.39
2024-01-24T23:43:33.099Z,100134.45
2024-01-24T23:46:01.280Z,100132.96
2024-01-24T23:48:30.803Z,100140.71
2024-01-24T23:51:01.428Z,100133.40
2024-01-24T23:54:22.993Z,100142.98
2024-01-24T23:56:51.967Z,100149.12
2024-01-24T23:59:20.216Z,100144.81
